Time;durP1;ratioP1;P1;durP2;ratioP2;P2;SDS_P1;SDS_P2;PMS_P1;PMS_P2;Temp;Humidity;BMP_temperature;BMP_pressure;BME280_temperature;BME280_humidity;BME280_pressure;Samples;Min_cycle;Max_cycle;Signal;HPM_P1;HPM_P2
2024/01/29 00:01:17;;;;;;;;;;;2.00;89.70;;;;;;5019519;28;82394;-61
2024/01/29 00:03:44;;;;;;;;;;;2.00;89.70;;;;;;5022006;28;81897;-60
2024/01/29 00:06:10;;;;;;;;;;;1.90;89.70;;;;;;5017376;28;81950;-61
2024/01/29 00:08:35;;;;;;;;;;;1.90;89.60;;;;;;5024496;28;82374;-61
2024/01/29 00:11:01;;;;;;;;;;;1.90;89.70;;;;;;5021353;28;81819;-61
2024/01/29 00:13:26;;;;;;;;;;;1.90;89.70;;;;;;5021771;28;81837;-61
2024/01/29 00:15:52;;;;;;;;;;;1.90;89.60;;;;;;5030397;28;81576;-60
2024/01/29 00:18:18;;;;;;;;;;;1.90;89.60;;;;;;5020692;28;82716;-61
2024/01/29 00:20:44;;;;;;;;;;;1.90;89.60;;;;;;5023892;28;83428;-61
2024/01/29 00:23:09;;;;;;;;;;;1.90;89.50;;;;;;5019429;28;82973;-61
2024/01/29 00:25:35;;;;;;;;;;;1.90;89.70;;;;;;5019905;28;82241;-61
2024/01/29 00:28:00;;;;;;;;;;;1.90;89.60;;;;;;5020944;28;82418;-61
2024/01/29 00:30:26;;;;;;;;;;;1.90;89.70;;;;;;5024717;28;81922;-59
2024/01/29 00:32:51;;;;;;;;;;;1.90;89.70;;;;;;5021117;28;82318;-61
2024/01/29 00:35:17;;;;;;;;;;;1.90;89.80;;;;;;5020725;28;82463;-61
2024/01/29 00:37:42;;;;;;;;;;;1.90;89.70;;;;;;5027470;28;81789;-61
2024/01/29 00:40:08;;;;;;;;;;;1.90;89.50;;;;;;5020624;28;83414;-61
2024/01/29 00:42:34;;;;;;;;;;;1.90;89.40;;;;;;5024504;28;82097;-61
2024/01/29 00:44:59;;;;;;;;;;;1.90;89.50;;;;;;5020690;28;81963;-61
2024/01/29 00:47:25;;;;;;;;;;;1.90;89.60;;;;;;5023748;28;82892;-61
2024/01/29 00:49:50;;;;;;;;;;;1.90;89.60;;;;;;5018261;28;81904;-61
2024/01/29 00:52:16;;;;;;;;;;;1.90;89.70;;;;;;5020744;28;81848;-61
2024/01/29 00:54:41;;;;;;;;;;;1.90;89.70;;;;;;5022108;28;82464;-61
2024/01/29 00:57:07;;;;;;;;;;;1.90;89.60;;;;;;5017330;28;82040;-61
2024/01/29 00:59:33;;;;;;;;;;;1.90;89.70;;;;;;5025785;28;82584;-61
2024/01/29 01:01:59;;;;;;;;;;;1.90;89.70;;;;;;5017857;28;81776;-62
2024/01/29 01:04:25;;;;;;;;;;;1.90;89.70;;;;;;5022153;28;81711;-61
2024/01/29 01:06:51;;;;;;;;;;;1.90;89.60;;;;;;5020562;28;82453;-62
2024/01/29 01:09:16;;;;;;;;;;;1.90;89.60;;;;;;5018237;28;81940;-61
2024/01/29 01:11:42;;;;;;;;;;;1.90;89.60;;;;;;5013691;28;82817;-61
2024/01/29 01:14:08;;;;;;;;;;;1.90;89.40;;;;;;5015300;28;82398;-61
2024/01/29 01:16:33;;;;;;;;;;;1.90;89.60;;;;;;5020284;28;81950;-61
2024/01/29 01:18:59;;;;;;;;;;;1.90;89.60;;;;;;5023667;28;81806;-62
2024/01/29 01:21:24;;;;;;;;;;;1.90;89.60;;;;;;5017248;28;82580;-61
2024/01/29 01:23:50;;;;;;;;;;;1.90;89.60;;;;;;5020535;28;82209;-61
2024/01/29 01:26:16;;;;;;;;;;;1.90;89.60;;;;;;5020078;28;82483;-62
2024/01/29 01:28:42;;;;;;;;;;;1.90;89.60;;;;;;5020228;28;81016;-61
2024/01/29 01:31:07;;;;;;;;;;;1.90;89.60;;;;;;5019718;28;81830;-61
2024/01/29 01:33:33;;;;;;;;;;;1.90;89.60;;;;;;5020162;28;82521;-61
2024/01/29 01:35:58;;;;;;;;;;;1.90;89.70;;;;;;5020587;28;82986;-61
2024/01/29 01:38:24;;;;;;;;;;;1.80;89.70;;;;;;5020023;28;82886;-62
2024/01/29 01:40:49;;;;;;;;;;;1.80;89.60;;;;;;5022816;28;82432;-61
2024/01/29 01:43:20;;;;;;;;;;;1.80;89.70;;;;;;5026507;28;82049;-61
2024/01/29 01:46:06;;;;;;;;;;;1.80;89.70;;;;;;5019808;28;83531;-61
2024/01/29 01:48:32;;;;;;;;;;;1.90;89.60;;;;;;5020018;28;81922;-62
2024/01/29 01:50:58;;;;;;;;;;;1.90;89.60;;;;;;5020226;28;81977;-62
2024/01/29 01:53:24;;;;;;;;;;;1.90;89.70;;;;;;5023276;28;81029;-62
2024/01/29 01:55:49;;;;;;;;;;;1.80;89.50;;;;;;5020386;28;81969;-61
2024/01/29 01:58:18;;;;;;;;;;;1.80;89.60;;;;;;5022469;28;81924;-62
2024/01/29 02:00:44;;;;;;;;;;;1.80;89.60;;;;;;5018286;28;82825;-62
2024/01/29 02:03:09;;;;;;;;;;;1.80;89.70;;;;;;5019943;28;82001;-61
2024/01/29 02:05:36;;;;;;;;;;;1.80;89.70;;;;;;5023738;28;81927;-61
2024/01/29 02:08:02;;;;;;;;;;;1.80;89.70;;;;;;5019364;28;82061;-62
2024/01/29 02:10:27;;;;;;;;;;;1.80;89.80;;;;;;5019721;28;81914;-62
2024/01/29 02:12:53;;;;;;;;;;;1.80;89.80;;;;;;5023056;28;82369;-61
2024/01/29 02:15:19;;;;;;;;;;;1.80;89.80;;;;;;5019468;28;82031;-62
2024/01/29 02:17:44;;;;;;;;;;;1.80;89.80;;;;;;5023531;28;81130;-62
2024/01/29 02:20:10;;;;;;;;;;;1.80;89.70;;;;;;5023347;28;82226;-61
2024/01/29 02:22:42;;;;;;;;;;;1.80;89.80;;;;;;5018575;28;81908;-62
2024/01/29 02:25:07;;;;;;;;;;;1.80;89.70;;;;;;5018540;28;82833;-62
2024/01/29 02:27:33;;;;;;;;;;;1.80;89.80;;;;;;5022777;28;81956;-62
2024/01/29 02:29:58;;;;;;;;;;;1.80;89.70;;;;;;5019357;28;81983;-62
2024/01/29 02:32:24;;;;;;;;;;;1.80;89.70;;;;;;5022849;28;82500;-62
2024/01/29 02:34:49;;;;;;;;;;;1.80;89.80;;;;;;5019366;28;81941;-62
2024/01/29 02:37:15;;;;;;;;;;;1.80;89.80;;;;;;5020538;28;82164;-61
2024/01/29 02:39:41;;;;;;;;;;;1.80;89.90;;;;;;5022553;28;81825;-61
2024/01/29 02:42:06;;;;;;;;;;;1.80;89.70;;;;;;5019412;28;81225;-62
2024/01/29 02:44:32;;;;;;;;;;;1.80;89.90;;;;;;5022601;28;82012;-62
2024/01/29 02:46:58;;;;;;;;;;;1.80;89.60;;;;;;5021763;28;81960;-62
2024/01/29 02:49:23;;;;;;;;;;;1.80;89.70;;;;;;5021702;28;82881;-61
2024/01/29 02:51:49;;;;;;;;;;;1.80;89.60;;;;;;5017497;28;82350;-61
2024/01/29 02:54:14;;;;;;;;;;;1.80;89.60;;;;;;5022450;28;81976;-61
2024/01/29 02:56:40;;;;;;;;;;;1.80;89.50;;;;;;5019101;28;81804;-62
2024/01/29 02:59:05;;;;;;;;;;;1.80;89.60;;;;;;5022449;28;82748;-62
2024/01/29 03:01:31;;;;;;;;;;;1.80;89.50;;;;;;5016980;28;82591;-61
2024/01/29 03:03:57;;;;;;;;;;;1.80;89.60;;;;;;5022500;28;81887;-61
2024/01/29 03:06:22;;;;;;;;;;;1.80;89.60;;;;;;5015334;28;81794;-61
2024/01/29 03:08:48;;;;;;;;;;;1.80;89.40;;;;;;5021200;28;81855;-61
2024/01/29 03:11:13;;;;;;;;;;;1.80;89.60;;;;;;5022206;28;83164;-62
2024/01/29 03:13:39;;;;;;;;;;;1.70;89.50;;;;;;5017861;28;82849;-61
2024/01/29 03:16:05;;;;;;;;;;;1.80;89.60;;;;;;5022393;28;83852;-61
2024/01/29 03:18:30;;;;;;;;;;;1.80;89.60;;;;;;5018211;28;82369;-61
2024/01/29 03:20:56;;;;;;;;;;;1.80;89.60;;;;;;5020321;28;81967;-62
2024/01/29 03:23:21;;;;;;;;;;;1.70;89.60;;;;;;5013504;28;81922;-62
2024/01/29 03:25:47;;;;;;;;;;;1.80;89.60;;;;;;5019740;28;83357;-61
2024/01/29 03:28:12;;;;;;;;;;;1.80;89.50;;;;;;5018444;28;81935;-62
2024/01/29 03:30:38;;;;;;;;;;;1.80;89.50;;;;;;5023661;28;81339;-62
2024/01/29 03:33:04;;;;;;;;;;;1.70;89.40;;;;;;5014234;28;81961;-61
2024/01/29 03:35:29;;;;;;;;;;;1.70;89.40;;;;;;5018362;28;81877;-61
2024/01/29 03:37:55;;;;;;;;;;;1.70;89.40;;;;;;5017751;28;83105;-61
2024/01/29 03:40:20;;;;;;;;;;;1.80;89.50;;;;;;5021433;28;82014;-61
2024/01/29 03:42:46;;;;;;;;;;;1.70;89.40;;;;;;5018050;28;81948;-61
2024/01/29 03:45:11;;;;;;;;;;;1.70;89.40;;;;;;5021159;28;82438;-61
2024/01/29 03:47:37;;;;;;;;;;;1.70;89.40;;;;;;5014701;28;82030;-61
2024/01/29 03:50:03;;;;;;;;;;;1.70;89.40;;;;;;5018100;28;81818;-61
2024/01/29 03:52:29;;;;;;;;;;;1.70;89.40;;;;;;5023362;28;83748;-62
2024/01/29 03:54:54;;;;;;;;;;;1.70;89.90;;;;;;5021895;28;81752;-61
2024/01/29 03:57:20;;;;;;;;;;;1.70;89.30;;;;;;5015348;28;82674;-61
2024/01/29 03:59:45;;;;;;;;;;;1.70;89.40;;;;;;5021470;28;81864;-61
2024/01/29 04:02:11;;;;;;;;;;;1.70;89.30;;;;;;5020448;28;82916;-62
2024/01/29 04:04:37;;;;;;;;;;;1.70;89.30;;;;;;5015747;28;82504;-62
2024/01/29 04:07:02;;;;;;;;;;;1.70;89.40;;;;;;5016895;28;82043;-62
2024/01/29 04:09:28;;;;;;;;;;;1.70;89.40;;;;;;5021565;28;81812;-62
2024/01/29 04:11:56;;;;;;;;;;;1.70;89.40;;;;;;5018063;28;82465;-62
2024/01/29 04:14:22;;;;;;;;;;;1.70;89.30;;;;;;5024061;28;81804;-61
2024/01/29 04:16:47;;;;;;;;;;;1.70;89.40;;;;;;5017634;28;82380;-61
2024/01/29 04:19:13;;;;;;;;;;;1.70;89.30;;;;;;5022315;28;80943;-61
2024/01/29 04:21:42;;;;;;;;;;;1.70;89.40;;;;;;5016915;28;81811;-62
2024/01/29 04:24:11;;;;;;;;;;;1.70;89.40;;;;;;5015471;28;82405;-62
2024/01/29 04:26:37;;;;;;;;;;;1.70;89.30;;;;;;5020772;28;82942;-62
2024/01/29 04:29:03;;;;;;;;;;;1.70;89.30;;;;;;5016500;28;81924;-62
2024/01/29 04:31:28;;;;;;;;;;;1.70;89.30;;;;;;5013027;28;82974;-62
2024/01/29 04:33:54;;;;;;;;;;;1.70;89.40;;;;;;5013056;28;81880;-61
2024/01/29 04:36:19;;;;;;;;;;;1.70;89.30;;;;;;5020800;28;82371;-62
2024/01/29 04:38:45;;;;;;;;;;;1.70;89.30;;;;;;5013450;28;81905;-61
2024/01/29 04:41:18;;;;;;;;;;;1.70;89.40;;;;;;5019947;28;82649;-62
2024/01/29 04:43:43;;;;;;;;;;;1.70;89.50;;;;;;5017357;28;82809;-62
2024/01/29 04:46:09;;;;;;;;;;;1.70;89.40;;;;;;5018645;28;81867;-62
2024/01/29 04:48:34;;;;;;;;;;;1.70;89.20;;;;;;5020967;28;82178;-62
2024/01/29 04:51:04;;;;;;;;;;;1.70;89.30;;;;;;5023214;28;83301;-62
2024/01/29 04:53:30;;;;;;;;;;;1.70;89.30;;;;;;5020309;28;82070;-62
2024/01/29 04:55:56;;;;;;;;;;;1.70;89.40;;;;;;5024920;28;82039;-62
2024/01/29 04:58:21;;;;;;;;;;;1.70;89.30;;;;;;5022201;28;81719;-62
2024/01/29 05:00:47;;;;;;;;;;;1.70;89.40;;;;;;5020335;28;81757;-61
2024/01/29 05:03:13;;;;;;;;;;;1.70;89.40;;;;;;5017178;28;82272;-62
2024/01/29 05:05:38;;;;;;;;;;;1.60;89.30;;;;;;5022462;28;81914;-62
2024/01/29 05:08:04;;;;;;;;;;;1.60;89.30;;;;;;5022479;28;81412;-62
2024/01/29 05:10:29;;;;;;;;;;;1.70;89.30;;;;;;5019585;28;82492;-62
2024/01/29 05:12:56;;;;;;;;;;;1.70;89.30;;;;;;5022075;28;82017;-62
2024/01/29 05:15:21;;;;;;;;;;;1.70;89.20;;;;;;5021801;28;82726;-62
2024/01/29 05:17:47;;;;;;;;;;;1.70;89.30;;;;;;5024891;28;82515;-61
2024/01/29 05:20:12;;;;;;;;;;;1.60;89.20;;;;;;5020082;28;81710;-62
2024/01/29 05:22:38;;;;;;;;;;;1.60;89.20;;;;;;5021906;28;82624;-62
2024/01/29 05:25:04;;;;;;;;;;;1.60;89.40;;;;;;5019989;28;82014;-61
2024/01/29 05:27:29;;;;;;;;;;;1.60;89.40;;;;;;5023649;28;81996;-62
2024/01/29 05:29:55;;;;;;;;;;;1.60;89.40;;;;;;5022159;28;82529;-61
2024/01/29 05:32:21;;;;;;;;;;;1.60;89.40;;;;;;5022225;28;81225;-62
2024/01/29 05:34:46;;;;;;;;;;;1.60;89.40;;;;;;5022168;28;81918;-62
2024/01/29 05:37:12;;;;;;;;;;;1.60;89.30;;;;;;5025543;28;81955;-62
2024/01/29 05:39:38;;;;;;;;;;;1.60;89.20;;;;;;5021615;28;82945;-62
2024/01/29 05:42:04;;;;;;;;;;;1.60;89.30;;;;;;5021042;28;81949;-62
2024/01/29 05:44:30;;;;;;;;;;;1.60;89.40;;;;;;5023165;28;81913;-62
2024/01/29 05:46:55;;;;;;;;;;;1.70;89.40;;;;;;5023715;28;81943;-62
2024/01/29 05:49:22;;;;;;;;;;;1.60;89.20;;;;;;5019586;28;82513;-62
2024/01/29 05:51:48;;;;;;;;;;;1.70;89.20;;;;;;5017360;28;81867;-62
2024/01/29 05:54:13;;;;;;;;;;;1.60;89.30;;;;;;5019508;28;81882;-62
2024/01/29 05:56:42;;;;;;;;;;;1.60;89.40;;;;;;5016649;28;81614;-62
2024/01/29 05:59:08;;;;;;;;;;;1.60;89.50;;;;;;5023666;28;81861;-62
2024/01/29 06:01:34;;;;;;;;;;;1.60;89.30;;;;;;5021277;28;82189;-62
2024/01/29 06:03:59;;;;;;;;;;;1.60;89.30;;;;;;5019719;28;83546;-62
2024/01/29 06:06:25;;;;;;;;;;;1.60;89.40;;;;;;5011520;28;82704;-62
2024/01/29 06:08:51;;;;;;;;;;;1.60;89.40;;;;;;5018720;28;83479;-62
2024/01/29 06:11:16;;;;;;;;;;;1.60;89.50;;;;;;5018540;28;81885;-62
2024/01/29 06:13:42;;;;;;;;;;;1.60;89.50;;;;;;5019299;28;81842;-62
2024/01/29 06:16:07;;;;;;;;;;;1.60;89.40;;;;;;5021054;28;82939;-62
2024/01/29 06:18:33;;;;;;;;;;;1.60;89.40;;;;;;5021618;28;81859;-62
2024/01/29 06:20:58;;;;;;;;;;;1.60;89.10;;;;;;5024091;28;81332;-62
2024/01/29 06:23:25;;;;;;;;;;;1.60;89.30;;;;;;5020649;28;81829;-62
2024/01/29 06:25:51;;;;;;;;;;;1.60;89.30;;;;;;5020543;28;82991;-62
2024/01/29 06:28:17;;;;;;;;;;;1.60;90.00;;;;;;5020529;28;83540;-62
2024/01/29 06:30:43;;;;;;;;;;;1.60;89.40;;;;;;5020549;28;81998;-62
2024/01/29 06:33:08;;;;;;;;;;;1.60;89.30;;;;;;5016680;28;81947;-62
2024/01/29 06:35:34;;;;;;;;;;;1.60;89.20;;;;;;5014497;28;83432;-62
2024/01/29 06:38:01;;;;;;;;;;;1.60;89.40;;;;;;5018464;28;81807;-63
2024/01/29 06:40:27;;;;;;;;;;;1.60;89.30;;;;;;5020034;28;83463;-62
2024/01/29 06:42:56;;;;;;;;;;;1.60;89.40;;;;;;5015829;28;82372;-62
2024/01/29 06:45:21;;;;;;;;;;;1.60;89.40;;;;;;5018135;28;81817;-62
2024/01/29 06:47:47;;;;;;;;;;;1.60;89.50;;;;;;5018661;28;82344;-62
2024/01/29 06:50:13;;;;;;;;;;;1.60;89.30;;;;;;5016821;28;81979;-62
2024/01/29 06:52:38;;;;;;;;;;;1.60;89.40;;;;;;5017915;28;83025;-62
2024/01/29 06:55:04;;;;;;;;;;;1.60;89.40;;;;;;5017409;28;82321;-62
2024/01/29 06:57:29;;;;;;;;;;;1.60;89.30;;;;;;5017322;28;82587;-62
2024/01/29 06:59:55;;;;;;;;;;;1.60;89.40;;;;;;5014413;28;81943;-62
2024/01/29 07:02:21;;;;;;;;;;;1.60;89.50;;;;;;5016682;28;82618;-62
2024/01/29 07:04:47;;;;;;;;;;;1.60;89.50;;;;;;5023997;28;82003;-62
2024/01/29 07:07:13;;;;;;;;;;;1.60;89.50;;;;;;5019490;28;82454;-62
2024/01/29 07:09:39;;;;;;;;;;;1.60;89.30;;;;;;5019339;28;81629;-62
2024/01/29 07:12:05;;;;;;;;;;;1.60;89.40;;;;;;5016372;28;82233;-62
2024/01/29 07:14:31;;;;;;;;;;;1.60;89.40;;;;;;5018725;28;82569;-62
2024/01/29 07:16:57;;;;;;;;;;;1.60;89.40;;;;;;5014618;28;82928;-62
2024/01/29 07:19:26;;;;;;;;;;;1.60;89.30;;;;;;5016401;28;83109;-62
2024/01/29 07:21:52;;;;;;;;;;;1.60;89.30;;;;;;5021372;28;82639;-62
2024/01/29 07:24:18;;;;;;;;;;;1.60;89.30;;;;;;5018557;28;81966;-62
2024/01/29 07:26:43;;;;;;;;;;;1.60;89.20;;;;;;5017504;28;81802;-62
2024/01/29 07:29:09;;;;;;;;;;;1.60;89.20;;;;;;5018267;27;82200;-62
2024/01/29 07:31:35;;;;;;;;;;;1.60;89.00;;;;;;5021405;28;82083;-62
2024/01/29 07:34:00;;;;;;;;;;;1.60;89.20;;;;;;5019995;28;81733;-63
2024/01/29 07:36:27;;;;;;;;;;;1.60;89.20;;;;;;5021534;28;82047;-62
2024/01/29 07:38:52;;;;;;;;;;;1.60;89.00;;;;;;5018719;28;81759;-62
2024/01/29 07:41:18;;;;;;;;;;;1.60;89.20;;;;;;5019807;28;83361;-62
2024/01/29 07:43:44;;;;;;;;;;;1.60;89.20;;;;;;5018293;28;81969;-62
2024/01/29 07:46:10;;;;;;;;;;;1.60;89.20;;;;;;5019025;28;81875;-62
2024/01/29 07:48:36;;;;;;;;;;;1.60;89.40;;;;;;5020097;28;82550;-62
2024/01/29 07:51:01;;;;;;;;;;;1.60;89.30;;;;;;5020187;28;83013;-62
2024/01/29 07:53:27;;;;;;;;;;;1.60;89.40;;;;;;5018809;28;83574;-62
2024/01/29 07:55:52;;;;;;;;;;;1.60;89.20;;;;;;5014192;28;82024;-62
2024/01/29 07:58:18;;;;;;;;;;;1.60;89.30;;;;;;5022297;28;81529;-62
2024/01/29 08:00:44;;;;;;;;;;;1.60;89.20;;;;;;5017488;28;82264;-62
2024/01/29 08:03:09;;;;;;;;;;;1.60;89.10;;;;;;5015423;28;82269;-62
2024/01/29 08:05:35;;;;;;;;;;;1.60;89.10;;;;;;5017416;28;82827;-62
2024/01/29 08:08:00;;;;;;;;;;;1.60;89.00;;;;;;5015559;28;82352;-62
2024/01/29 08:10:26;;;;;;;;;;;1.60;89.10;;;;;;5023661;28;82274;-62
2024/01/29 08:12:51;;;;;;;;;;;1.60;89.00;;;;;;5017316;28;82374;-62
2024/01/29 08:15:17;;;;;;;;;;;1.60;89.10;;;;;;5021600;28;81896;-63
2024/01/29 08:17:43;;;;;;;;;;;1.60;89.10;;;;;;5018606;28;81971;-62
2024/01/29 08:20:08;;;;;;;;;;;1.60;89.00;;;;;;5017347;28;82420;-63
2024/01/29 08:22:34;;;;;;;;;;;1.60;89.10;;;;;;5021359;28;81552;-62
2024/01/29 08:24:59;;;;;;;;;;;1.60;89.00;;;;;;5021898;28;82444;-62
2024/01/29 08:27:27;;;;;;;;;;;1.60;89.10;;;;;;5023967;28;81791;-62
2024/01/29 08:29:54;;;;;;;;;;;1.60;89.00;;;;;;5023562;28;82851;-62
2024/01/29 08:32:21;;;;;;;;;;;1.60;89.10;;;;;;5024854;28;81794;-62
2024/01/29 08:34:48;;;;;;;;;;;1.60;89.00;;;;;;5024047;28;81980;-63
2024/01/29 08:37:13;;;;;;;;;;;1.60;88.90;;;;;;5016397;28;82965;-62
2024/01/29 08:39:39;;;;;;;;;;;1.60;88.90;;;;;;5020001;28;81868;-62
2024/01/29 08:42:06;;;;;;;;;;;1.60;88.90;;;;;;5016504;28;82025;-62
2024/01/29 08:44:32;;;;;;;;;;;1.60;88.90;;;;;;5022383;28;82677;-62
2024/01/29 08:46:57;;;;;;;;;;;1.60;88.90;;;;;;5016876;28;82447;-62
2024/01/29 08:49:23;;;;;;;;;;;1.60;88.80;;;;;;5020752;28;81968;-62
2024/01/29 08:51:48;;;;;;;;;;;1.60;88.80;;;;;;5025607;28;83122;-62
2024/01/29 08:54:14;;;;;;;;;;;1.60;88.90;;;;;;5027872;28;82902;-62
2024/01/29 08:56:41;;;;;;;;;;;1.70;88.70;;;;;;5020474;28;82587;-62
2024/01/29 08:59:07;;;;;;;;;;;1.60;88.90;;;;;;5020336;28;82465;-62
2024/01/29 09:01:33;;;;;;;;;;;1.70;88.80;;;;;;5017887;28;81877;-62
2024/01/29 09:03:58;;;;;;;;;;;1.70;88.80;;;;;;5020984;28;81986;-62
2024/01/29 09:06:24;;;;;;;;;;;1.70;88.80;;;;;;5021647;28;82296;-62
2024/01/29 09:08:50;;;;;;;;;;;1.70;88.70;;;;;;5020380;28;81990;-63
2024/01/29 09:11:16;;;;;;;;;;;1.70;88.80;;;;;;5020493;28;83029;-63
2024/01/29 09:13:41;;;;;;;;;;;1.70;88.70;;;;;;5014664;28;83384;-62
2024/01/29 09:16:09;;;;;;;;;;;1.70;88.70;;;;;;5024258;28;81848;-62
2024/01/29 09:18:34;;;;;;;;;;;1.70;88.80;;;;;;5016170;28;83399;-62
2024/01/29 09:21:00;;;;;;;;;;;1.70;88.80;;;;;;5016601;28;81860;-62
2024/01/29 09:23:25;;;;;;;;;;;1.70;88.90;;;;;;5020806;28;81787;-62
2024/01/29 09:25:51;;;;;;;;;;;1.70;88.80;;;;;;5021232;28;81958;-63
2024/01/29 09:28:17;;;;;;;;;;;1.70;88.90;;;;;;5020230;28;82125;-63
2024/01/29 09:30:42;;;;;;;;;;;1.70;88.90;;;;;;5018602;28;82906;-62
2024/01/29 09:33:08;;;;;;;;;;;1.60;88.90;;;;;;5018302;28;82462;-63
2024/01/29 09:35:33;;;;;;;;;;;1.70;88.90;;;;;;5024646;28;81242;-62
2024/01/29 09:37:59;;;;;;;;;;;1.70;88.80;;;;;;5018623;28;82393;-62
2024/01/29 09:40:24;;;;;;;;;;;1.70;88.80;;;;;;5023510;28;81983;-63
2024/01/29 09:42:52;;;;;;;;;;;1.60;88.80;;;;;;5019404;28;82769;-63
2024/01/29 09:45:22;;;;;;;;;;;1.70;88.80;;;;;;5019021;28;82332;-62
2024/01/29 09:47:49;;;;;;;;;;;1.70;88.90;;;;;;5017131;28;82763;-62
2024/01/29 09:50:15;;;;;;;;;;;1.70;89.00;;;;;;5019912;28;81989;-62
2024/01/29 09:52:41;;;;;;;;;;;1.60;88.80;;;;;;5019101;28;82521;-63
2024/01/29 09:55:09;;;;;;;;;;;1.70;88.80;;;;;;5023574;28;81938;-62
2024/01/29 09:57:35;;;;;;;;;;;1.60;88.70;;;;;;5023883;28;81849;-62
2024/01/29 10:00:01;;;;;;;;;;;1.70;88.80;;;;;;5018695;28;81281;-63
2024/01/29 10:02:27;;;;;;;;;;;1.60;88.90;;;;;;5020737;28;82386;-63
2024/01/29 10:04:52;;;;;;;;;;;1.70;88.80;;;;;;5016054;28;83493;-62
2024/01/29 10:07:18;;;;;;;;;;;1.70;88.80;;;;;;5020007;28;82859;-63
2024/01/29 10:09:43;;;;;;;;;;;1.70;89.40;;;;;;5021717;28;83867;-62
2024/01/29 10:12:20;;;;;;;;;;;1.70;88.80;;;;;;5018753;28;82321;-63
2024/01/29 10:14:45;;;;;;;;;;;1.70;88.80;;;;;;5020490;28;81786;-63
2024/01/29 10:17:11;;;;;;;;;;;1.70;88.70;;;;;;5017296;28;82995;-63
2024/01/29 10:19:37;;;;;;;;;;;1.60;88.80;;;;;;5024661;28;82262;-63
2024/01/29 10:22:02;;;;;;;;;;;1.70;88.80;;;;;;5017695;28;82648;-62
2024/01/29 10:24:28;;;;;;;;;;;1.70;89.40;;;;;;5022284;28;81241;-62
2024/01/29 10:26:54;;;;;;;;;;;1.60;88.80;;;;;;5020399;28;81875;-63
2024/01/29 10:29:19;;;;;;;;;;;1.70;88.80;;;;;;5018095;28;81985;-62
2024/01/29 10:31:45;;;;;;;;;;;1.70;88.80;;;;;;5018214;28;83160;-62
2024/01/29 10:34:10;;;;;;;;;;;1.70;88.80;;;;;;5018645;28;82731;-62
2024/01/29 10:36:38;;;;;;;;;;;1.70;88.60;;;;;;5021846;28;81956;-62
2024/01/29 10:39:04;;;;;;;;;;;1.70;88.70;;;;;;5024219;28;82612;-62
2024/01/29 10:41:32;;;;;;;;;;;1.70;88.80;;;;;;5016470;28;81932;-61
2024/01/29 10:43:59;;;;;;;;;;;1.70;88.50;;;;;;5017634;28;81746;-62
2024/01/29 10:46:26;;;;;;;;;;;1.70;88.60;;;;;;5018650;28;82131;-62
2024/01/29 10:48:53;;;;;;;;;;;1.70;88.50;;;;;;5022841;28;81682;-63
2024/01/29 10:51:19;;;;;;;;;;;1.70;88.70;;;;;;5022483;28;83487;-62
2024/01/29 10:53:48;;;;;;;;;;;1.60;88.60;;;;;;5014741;28;82418;-62
2024/01/29 10:56:15;;;;;;;;;;;1.70;88.60;;;;;;5017460;28;82968;-62
2024/01/29 10:58:41;;;;;;;;;;;1.70;88.40;;;;;;5018794;28;82355;-62
2024/01/29 11:01:09;;;;;;;;;;;1.70;88.50;;;;;;5024228;28;81989;-63
2024/01/29 11:03:34;;;;;;;;;;;1.70;88.50;;;;;;5017983;28;82407;-61
2024/01/29 11:06:03;;;;;;;;;;;1.70;88.30;;;;;;5018657;28;81901;-63
2024/01/29 11:08:31;;;;;;;;;;;1.70;88.30;;;;;;5018131;28;83162;-63
2024/01/29 11:10:57;;;;;;;;;;;1.70;88.20;;;;;;5015807;28;82400;-62
2024/01/29 11:13:23;;;;;;;;;;;1.70;88.30;;;;;;5020659;28;81198;-63
2024/01/29 11:15:49;;;;;;;;;;;1.70;88.30;;;;;;5018553;28;81863;-62
2024/01/29 11:18:14;;;;;;;;;;;1.70;88.10;;;;;;5019646;28;82524;-63
2024/01/29 11:20:40;;;;;;;;;;;1.70;88.20;;;;;;5014141;28;83469;-63
2024/01/29 11:23:09;;;;;;;;;;;1.70;88.10;;;;;;5021369;28;82499;-62
2024/01/29 11:25:36;;;;;;;;;;;1.80;88.10;;;;;;5019025;28;81884;-62
2024/01/29 11:28:02;;;;;;;;;;;1.70;87.90;;;;;;5018111;28;81715;-63
2024/01/29 11:30:28;;;;;;;;;;;1.70;87.90;;;;;;5015411;28;82488;-62
2024/01/29 11:32:54;;;;;;;;;;;1.70;87.90;;;;;;5020100;28;81921;-62
2024/01/29 11:35:21;;;;;;;;;;;1.70;87.90;;;;;;5019895;28;81825;-62
2024/01/29 11:37:50;;;;;;;;;;;1.70;88.10;;;;;;5019442;28;82655;-62
2024/01/29 11:40:32;;;;;;;;;;;1.80;88.00;;;;;;5017947;28;81831;-62
2024/01/29 11:42:58;;;;;;;;;;;1.70;88.00;;;;;;5018041;28;81839;-62
2024/01/29 11:45:24;;;;;;;;;;;1.70;87.90;;;;;;5025040;28;83375;-62
2024/01/29 11:47:49;;;;;;;;;;;1.70;88.00;;;;;;5020878;28;82267;-62
2024/01/29 11:50:15;;;;;;;;;;;1.70;88.00;;;;;;5018709;28;81808;-62
2024/01/29 11:52:40;;;;;;;;;;;1.70;88.00;;;;;;5015479;28;82462;-62
2024/01/29 11:55:06;;;;;;;;;;;1.80;88.00;;;;;;5018849;28;81861;-62
2024/01/29 11:57:32;;;;;;;;;;;1.70;87.80;;;;;;5019630;28;81878;-62
2024/01/29 12:00:00;;;;;;;;;;;1.80;87.90;;;;;;5021294;28;81922;-62
2024/01/29 12:02:26;;;;;;;;;;;1.80;87.90;;;;;;5014902;28;81754;-62
2024/01/29 12:04:52;;;;;;;;;;;1.80;87.80;;;;;;5021079;28;82407;-62
2024/01/29 12:07:18;;;;;;;;;;;1.80;87.90;;;;;;5025314;28;81968;-62
2024/01/29 12:09:44;;;;;;;;;;;1.80;88.00;;;;;;5025091;28;83681;-62
2024/01/29 12:12:10;;;;;;;;;;;1.70;87.80;;;;;;5023687;28;81960;-62
2024/01/29 12:14:35;;;;;;;;;;;1.80;88.00;;;;;;5017324;28;82147;-62
2024/01/29 12:17:02;;;;;;;;;;;1.80;88.00;;;;;;5017160;28;82342;-62
2024/01/29 12:19:28;;;;;;;;;;;1.70;87.80;;;;;;5022903;28;82020;-62
2024/01/29 12:21:53;;;;;;;;;;;1.80;87.90;;;;;;5022628;28;81881;-62
2024/01/29 12:24:20;;;;;;;;;;;1.80;88.00;;;;;;5025685;28;82361;-62
2024/01/29 12:26:45;;;;;;;;;;;1.80;88.00;;;;;;5022913;28;81233;-62
2024/01/29 12:29:11;;;;;;;;;;;1.70;88.70;;;;;;5022177;28;81722;-62
2024/01/29 12:31:38;;;;;;;;;;;1.80;88.10;;;;;;5025107;28;81929;-62
2024/01/29 12:34:05;;;;;;;;;;;1.70;88.00;;;;;;5021946;28;82756;-62
2024/01/29 12:36:31;;;;;;;;;;;1.70;88.10;;;;;;5022888;28;81924;-62
2024/01/29 12:38:58;;;;;;;;;;;1.70;88.10;;;;;;5019818;28;83156;-62
2024/01/29 12:41:24;;;;;;;;;;;1.80;88.00;;;;;;5020409;28;82748;-62
2024/01/29 12:43:51;;;;;;;;;;;1.80;87.70;;;;;;5018621;28;82511;-62
2024/01/29 12:46:16;;;;;;;;;;;1.80;88.00;;;;;;5022607;28;81892;-62
2024/01/29 12:48:42;;;;;;;;;;;1.80;87.90;;;;;;5019943;28;81936;-62
2024/01/29 12:51:11;;;;;;;;;;;1.80;88.10;;;;;;5016503;28;81390;-62
2024/01/29 12:53:37;;;;;;;;;;;1.80;88.10;;;;;;5019435;28;81827;-63
2024/01/29 12:56:03;;;;;;;;;;;1.80;87.80;;;;;;5020176;28;82388;-63
2024/01/29 12:58:28;;;;;;;;;;;1.80;87.90;;;;;;5022202;28;82868;-63
2024/01/29 13:00:54;;;;;;;;;;;1.80;88.40;;;;;;5021381;28;82489;-63
2024/01/29 13:03:20;;;;;;;;;;;1.80;87.80;;;;;;5022626;28;83487;-63
2024/01/29 13:05:45;;;;;;;;;;;1.80;88.00;;;;;;5017410;28;81988;-63
2024/01/29 13:08:11;;;;;;;;;;;1.80;88.10;;;;;;5020100;28;81877;-63
2024/01/29 13:10:37;;;;;;;;;;;1.80;88.10;;;;;;5024580;28;81763;-64
2024/01/29 13:13:04;;;;;;;;;;;1.80;87.90;;;;;;5021874;28;81967;-63
2024/01/29 13:15:30;;;;;;;;;;;1.80;87.70;;;;;;5024658;28;81522;-63
2024/01/29 13:17:55;;;;;;;;;;;1.80;87.60;;;;;;5023085;28;81925;-63
2024/01/29 13:20:21;;;;;;;;;;;1.80;87.60;;;;;;5021385;28;81882;-63
2024/01/29 13:22:47;;;;;;;;;;;1.80;87.60;;;;;;5021972;28;84446;-63
2024/01/29 13:25:14;;;;;;;;;;;1.80;87.60;;;;;;5022678;28;81805;-61
2024/01/29 13:27:40;;;;;;;;;;;1.80;87.40;;;;;;5024302;28;81960;-64
2024/01/29 13:30:05;;;;;;;;;;;1.90;87.50;;;;;;5019970;28;82290;-63
2024/01/29 13:32:32;;;;;;;;;;;1.90;87.20;;;;;;5022209;28;81840;-63
2024/01/29 13:34:57;;;;;;;;;;;1.90;87.40;;;;;;5019831;28;82273;-63
2024/01/29 13:37:23;;;;;;;;;;;1.90;87.40;;;;;;5020936;28;81963;-63
2024/01/29 13:39:48;;;;;;;;;;;1.80;87.50;;;;;;5021106;28;84662;-64
2024/01/29 13:42:14;;;;;;;;;;;1.80;87.50;;;;;;5019047;28;82348;-63
2024/01/29 13:44:40;;;;;;;;;;;1.90;87.40;;;;;;5021778;28;81934;-63
2024/01/29 13:47:06;;;;;;;;;;;1.80;87.40;;;;;;5014973;28;82981;-63
2024/01/29 13:49:32;;;;;;;;;;;1.90;87.30;;;;;;5019709;28;82536;-63
2024/01/29 13:51:57;;;;;;;;;;;1.80;87.20;;;;;;5022601;28;82275;-63
2024/01/29 13:54:23;;;;;;;;;;;1.80;87.30;;;;;;5023294;28;81867;-62
2024/01/29 13:56:49;;;;;;;;;;;1.80;87.40;;;;;;5021457;28;81808;-63
2024/01/29 13:59:14;;;;;;;;;;;1.80;87.20;;;;;;5022632;28;81882;-63
2024/01/29 14:01:40;;;;;;;;;;;1.80;87.30;;;;;;5020094;28;83392;-63
2024/01/29 14:04:05;;;;;;;;;;;1.80;87.40;;;;;;5019943;28;81234;-62
2024/01/29 14:06:31;;;;;;;;;;;1.80;87.40;;;;;;5022489;28;81720;-63
2024/01/29 14:08:56;;;;;;;;;;;1.80;87.30;;;;;;5018810;28;82434;-63
2024/01/29 14:11:22;;;;;;;;;;;1.80;87.20;;;;;;5019365;28;82920;-63
2024/01/29 14:13:49;;;;;;;;;;;1.80;87.40;;;;;;5022229;28;82624;-63
2024/01/29 14:16:15;;;;;;;;;;;1.80;87.20;;;;;;5023317;28;82397;-63
2024/01/29 14:18:40;;;;;;;;;;;1.80;87.30;;;;;;5018248;28;81905;-63
2024/01/29 14:21:07;;;;;;;;;;;1.80;87.20;;;;;;5017675;28;83847;-63
2024/01/29 14:23:33;;;;;;;;;;;1.80;87.40;;;;;;5021219;28;82117;-63